createdAt,value
2019-04-16T00:04:53.625Z,100916.47
2019-04-16T00:09:59.871Z,100905.30
2019-04-16T00:15:05.702Z,100893.59
2019-04-16T00:20:10.066Z,100893.41
2019-04-16T00:25:14.652Z,100886.77
2019-04-16T00:30:19.095Z,100877.66
2019-04-16T00:35:23.512Z,100867.44
2019-04-16T00:40:27.860Z,100865.31
2019-04-16T00:45:32.322Z,100859.27
2019-04-16T00:50:36.771Z,100863.41
2019-04-16T00:55:42.333Z,100859.58
2019-04-16T01:00:47.164Z,100862.41
2019-04-16T01:05:51.512Z,100850.33
2019-04-16T01:10:55.857Z,100848.23
2019-04-16T01:16:03.467Z,100851.44
2019-04-16T01:21:06.576Z,100859.03
2019-04-16T01:26:10.898Z,100846.87
2019-04-16T01:31:16.907Z,100853.41
2019-04-16T01:36:39.261Z,100850.90
2019-04-16T01:41:43.687Z,100851.33
2019-04-16T01:46:48.385Z,100845.62
2019-04-16T01:51:52.771Z,100844.78
2019-04-16T01:56:59.644Z,100847.63
2019-04-16T02:02:03.296Z,100850.16
2019-04-16T02:07:07.698Z,100844.84
2019-04-16T02:12:13.502Z,100854.92
2019-04-16T02:17:18.188Z,100859.88
2019-04-16T02:22:22.733Z,100865.64
2019-04-16T02:27:27.145Z,100862.28
2019-04-16T02:32:32.104Z,100865.42
2019-04-16T02:37:37.604Z,100869.09
2019-04-16T02:42:42.261Z,100867.20
2019-04-16T02:47:46.763Z,100868.27
2019-04-16T02:52:52.743Z,100859.99
2019-04-16T02:58:02.381Z,100864.98
2019-04-16T03:03:08.503Z,100860.34
2019-04-16T03:08:12.856Z,100857.52
2019-04-16T03:13:17.240Z,100855.66
2019-04-16T03:18:23.243Z,100850.18
2019-04-16T03:23:27.595Z,100852.73
2019-04-16T03:28:31.941Z,100847.73
2019-04-16T03:33:36.295Z,100851.96
2019-04-16T03:38:42.122Z,100848.29
2019-04-16T03:43:46.576Z,100846.12
2019-04-16T03:48:52.670Z,100844.38
2019-04-16T03:53:57.006Z,100849.30
2019-04-16T03:59:01.382Z,100849.70
2019-04-16T04:04:05.723Z,100850.94
2019-04-16T04:09:10.230Z,100853.77
2019-04-16T04:14:14.572Z,100851.00
2019-04-16T04:19:19.025Z,100854.97
2019-04-16T04:24:23.354Z,100855.13
2019-04-16T04:29:29.564Z,100856.42
2019-04-16T04:34:33.963Z,100856.02
2019-04-16T04:39:43.609Z,100852.67
2019-04-16T04:44:47.009Z,100857.51
2019-04-16T04:49:51.205Z,100858.28
2019-04-16T04:54:55.561Z,100860.77
2019-04-16T04:59:59.918Z,100868.69
2019-04-16T05:05:17.008Z,100866.02
2019-04-16T05:10:21.359Z,100865.15
2019-04-16T05:15:26.380Z,100865.15
2019-04-16T05:20:31.778Z,100874.27
2019-04-16T05:25:36.117Z,100878.17
2019-04-16T05:30:40.480Z,100884.34
2019-04-16T05:35:44.819Z,100882.17
2019-04-16T05:40:49.163Z,100879.53
2019-04-16T05:45:53.539Z,100876.88
2019-04-16T05:50:59.965Z,100880.07
2019-04-16T05:56:05.627Z,100878.45
2019-04-16T06:01:13.734Z,100870.61
2019-04-16T06:06:17.734Z,100870.42
2019-04-16T06:11:29.165Z,100879.55
2019-04-16T06:16:31.104Z,100872.22
2019-04-16T06:21:56.664Z,100873.48
2019-04-16T06:27:02.924Z,100880.87
2019-04-16T06:32:18.202Z,100871.88
2019-04-16T06:37:41.740Z,100874.09
2019-04-16T06:42:51.462Z,100868.44
2019-04-16T06:47:58.449Z,100866.64
2019-04-16T06:53:23.509Z,100868.00
2019-04-16T06:58:28.773Z,100864.75
2019-04-16T07:03:46.962Z,100867.41
2019-04-16T07:09:11.114Z,100858.30
2019-04-16T07:14:16.808Z,100863.95
2019-04-16T07:19:21.451Z,100847.00
2019-04-16T07:24:30.161Z,100845.84
2019-04-16T07:29:36.478Z,100847.95
2019-04-16T07:34:51.886Z,100843.18
2019-04-16T07:39:58.851Z,100839.14
2019-04-16T07:45:22.273Z,100839.48
2019-04-16T07:50:46.374Z,100840.30
2019-04-16T07:55:52.692Z,100836.67
2019-04-16T08:00:57.332Z,100834.75
2019-04-16T08:06:02.192Z,100832.36
2019-04-16T08:11:06.624Z,100838.86
2019-04-16T08:16:11.002Z,100844.14
2019-04-16T08:21:15.433Z,100848.55
2019-04-16T08:26:20.739Z,100841.71
2019-04-16T08:31:26.371Z,100842.51
2019-04-16T08:36:30.763Z,100844.45
2019-04-16T08:41:35.241Z,100838.27
2019-04-16T08:46:40.402Z,100840.31
2019-04-16T08:51:45.617Z,100841.45
2019-04-16T08:56:50.218Z,100838.34
2019-04-16T09:01:55.234Z,100835.77
2019-04-16T09:07:11.099Z,100837.07
2019-04-16T09:12:08.880Z,100836.55
2019-04-16T09:17:14.774Z,100831.13
2019-04-16T09:22:19.192Z,100828.34
2019-04-16T09:27:40.523Z,100834.80
2019-04-16T09:32:49.537Z,100833.81
2019-04-16T09:38:13.036Z,100832.48
2019-04-16T09:43:25.412Z,100829.16
2019-04-16T09:48:34.464Z,100831.96
2019-04-16T09:53:40.098Z,100829.53
2019-04-16T09:58:42.662Z,100834.22
2019-04-16T10:03:49.025Z,100835.12
2019-04-16T10:08:56.476Z,100830.20
2019-04-16T10:13:59.533Z,100833.58
2019-04-16T10:19:07.801Z,100830.37
2019-04-16T10:24:13.558Z,100825.12
2019-04-16T10:29:22.365Z,100833.31
2019-04-16T10:34:26.916Z,100825.25
2019-04-16T10:39:33.026Z,100823.27
2019-04-16T10:44:55.523Z,100816.52
2019-04-16T10:50:07.660Z,100812.14
2019-04-16T10:55:30.223Z,100808.89
2019-04-16T11:00:52.640Z,100809.70
2019-04-16T11:05:58.626Z,100804.80
2019-04-16T11:11:03.006Z,100795.34
2019-04-16T11:16:14.674Z,100796.95
2019-04-16T11:21:19.176Z,100793.28
2019-04-16T11:26:23.665Z,100801.66
2019-04-16T11:31:28.093Z,100798.02
2019-04-16T11:36:32.476Z,100783.41
2019-04-16T11:41:37.007Z,100790.47
2019-04-16T11:46:41.377Z,100799.54
2019-04-16T11:51:46.802Z,100790.28
2019-04-16T11:56:51.188Z,100789.40
2019-04-16T12:02:09.051Z,100778.47
2019-04-16T12:07:30.960Z,100779.93
2019-04-16T12:12:37.089Z,100774.83
2019-04-16T12:17:52.465Z,100772.82
2019-04-16T12:23:03.063Z,100768.07
2019-04-16T12:28:25.542Z,100754.80
2019-04-16T12:33:34.435Z,100752.17
2019-04-16T12:38:40.469Z,100741.21
2019-04-16T12:43:52.413Z,100745.09
2019-04-16T12:49:01.648Z,100737.55
2019-04-16T12:54:07.837Z,100742.73
2019-04-16T12:59:13.935Z,100736.16
2019-04-16T13:04:35.858Z,100739.02
2019-04-16T13:09:54.622Z,100732.14
2019-04-16T13:15:12.616Z,100729.53
2019-04-16T13:20:34.297Z,100727.71
2019-04-16T13:25:43.259Z,100718.29
2019-04-16T13:30:47.637Z,100718.29
2019-04-16T13:35:52.016Z,100715.14
2019-04-16T13:40:56.374Z,100713.83
2019-04-16T13:46:00.966Z,100717.77
2019-04-16T13:51:12.875Z,100706.76
2019-04-16T13:56:20.228Z,100718.23
2019-04-16T14:01:32.266Z,100699.67
2019-04-16T14:06:36.689Z,100710.01
2019-04-16T14:11:41.086Z,100702.78
2019-04-16T14:16:46.321Z,100711.11
2019-04-16T14:21:50.726Z,100704.92
2019-04-16T14:26:55.039Z,100702.95
2019-04-16T14:31:59.678Z,100697.52
2019-04-16T14:37:04.149Z,100692.64
2019-04-16T14:42:08.519Z,100689.32
2019-04-16T14:47:12.894Z,100688.20
2019-04-16T14:52:17.237Z,100697.30
2019-04-16T14:57:21.611Z,100701.89
2019-04-16T15:02:29.693Z,100702.49
2019-04-16T15:07:35.310Z,100705.92
2019-04-16T15:12:57.423Z,100701.75
2019-04-16T15:18:06.356Z,100693.99
2019-04-16T15:23:30.491Z,100708.44
2019-04-16T15:28:36.467Z,100698.80
2019-04-16T15:33:45.157Z,100707.18
2019-04-16T15:39:04.083Z,100708.89
2019-04-16T15:44:22.330Z,100722.98
2019-04-16T15:49:29.215Z,100719.88
2019-04-16T15:54:35.871Z,100708.19
2019-04-16T15:59:44.315Z,100723.34
2019-04-16T16:04:50.317Z,100705.86
2019-04-16T16:10:02.031Z,100716.41
2019-04-16T16:15:09.563Z,100714.02
2019-04-16T16:20:14.771Z,100716.97
2019-04-16T16:25:19.147Z,100718.09
2019-04-16T16:30:23.539Z,100722.58
2019-04-16T16:35:27.945Z,100733.94
2019-04-16T16:40:32.322Z,100738.02
2019-04-16T16:45:54.522Z,100733.73
2019-04-16T16:50:59.326Z,100739.58
2019-04-16T16:56:05.673Z,100744.52
2019-04-16T17:01:23.700Z,100755.83
2019-04-16T17:06:29.893Z,100750.70
2019-04-16T17:11:34.288Z,100750.70
2019-04-16T17:16:39.831Z,100756.64
2019-04-16T17:21:44.257Z,100761.46
2019-04-16T17:26:50.867Z,100764.80
2019-04-16T17:31:55.698Z,100763.68
2019-04-16T17:37:00.159Z,100762.21
2019-04-16T17:42:08.030Z,100768.78
2019-04-16T17:47:31.934Z,100780.92
2019-04-16T17:52:27.787Z,100787.03
2019-04-16T17:57:42.714Z,100794.44
2019-04-16T18:02:56.937Z,100804.57
2019-04-16T18:08:06.007Z,100803.14
2019-04-16T18:13:12.032Z,100811.05
2019-04-16T18:18:18.080Z,100808.09
2019-04-16T18:23:33.125Z,100814.86
2019-04-16T18:28:41.617Z,100826.14
2019-04-16T18:33:56.394Z,100833.08
2019-04-16T18:39:21.032Z,100840.03
2019-04-16T18:44:36.381Z,100842.84
2019-04-16T18:49:41.636Z,100848.57
2019-04-16T18:54:49.035Z,100847.67
2019-04-16T18:59:52.515Z,100866.30
2019-04-16T19:04:57.325Z,100873.05
2019-04-16T19:10:01.674Z,100872.09
2019-04-16T19:15:06.395Z,100884.13
2019-04-16T19:20:11.082Z,100896.91
2019-04-16T19:25:15.469Z,100892.75
2019-04-16T19:30:22.655Z,100905.66
2019-04-16T19:35:25.971Z,100903.58
2019-04-16T19:40:30.320Z,100907.99
2019-04-16T19:45:34.711Z,100916.06
2019-04-16T19:50:40.717Z,100924.75
2019-04-16T19:55:46.723Z,100927.48
2019-04-16T20:00:53.950Z,100926.34
2019-04-16T20:05:57.229Z,100935.04
2019-04-16T20:11:01.644Z,100938.69
2019-04-16T20:16:06.145Z,100934.67
2019-04-16T20:21:10.556Z,100939.96
2019-04-16T20:26:14.981Z,100941.03
2019-04-16T20:31:19.353Z,100940.29
2019-04-16T20:36:23.715Z,100950.06
2019-04-16T20:41:28.098Z,100947.10
2019-04-16T20:46:32.487Z,100952.95
2019-04-16T20:51:36.870Z,100952.91
2019-04-16T20:56:41.256Z,100956.11
2019-04-16T21:01:45.966Z,100958.41
2019-04-16T21:06:50.522Z,100964.95
2019-04-16T21:11:55.080Z,100969.87
2019-04-16T21:16:59.764Z,100963.20
2019-04-16T21:22:04.157Z,100976.95
2019-04-16T21:27:10.607Z,100980.84
2019-04-16T21:32:24.981Z,100981.77
2019-04-16T21:37:30.991Z,100988.50
2019-04-16T21:42:35.698Z,100987.53
2019-04-16T21:47:40.099Z,100988.83
2019-04-16T21:52:44.493Z,100996.33
2019-04-16T21:57:48.881Z,100997.20
2019-04-16T22:02:53.303Z,101006.95
2019-04-16T22:07:58.344Z,101015.09
2019-04-16T22:13:03.232Z,101012.98
2019-04-16T22:18:09.781Z,101023.09
2019-04-16T22:23:19.055Z,101022.80
2019-04-16T22:28:19.729Z,101022.30
2019-04-16T22:33:24.078Z,101023.31
2019-04-16T22:38:31.197Z,101019.38
2019-04-16T22:43:53.323Z,101021.64
2019-04-16T22:48:58.987Z,101030.63
2019-04-16T22:54:03.354Z,101036.48
2019-04-16T22:59:08.336Z,101043.44
2019-04-16T23:04:13.916Z,101032.99
2019-04-16T23:09:19.035Z,101030.82
2019-04-16T23:14:23.411Z,101021.72
2019-04-16T23:19:27.755Z,101037.80
2019-04-16T23:24:32.115Z,101032.14
2019-04-16T23:29:36.468Z,101041.70
2019-04-16T23:34:40.845Z,101041.66
2019-04-16T23:39:45.194Z,101042.40
2019-04-16T23:44:54.729Z,101043.84
2019-04-16T23:50:17.783Z,101039.44
2019-04-16T23:55:26.648Z,101046.89
